createdAt,value
2019-03-24T00:01:00.128Z,13.97
2019-03-24T00:02:06.357Z,12.73
2019-03-24T00:03:10.885Z,13.20
2019-03-24T00:04:15.422Z,13.53
2019-03-24T00:05:19.917Z,12.70
2019-03-24T00:06:24.417Z,12.18
2019-03-24T00:07:28.900Z,12.53
2019-03-24T00:08:33.396Z,13.03
2019-03-24T00:09:37.878Z,12.15
2019-03-24T00:10:42.466Z,14.18
2019-03-24T00:11:46.950Z,12.60
2019-03-24T00:12:51.443Z,11.80
2019-03-24T00:13:55.933Z,13.73
2019-03-24T00:15:00.414Z,13.55
2019-03-24T00:16:04.975Z,13.90
2019-03-24T00:17:09.465Z,13.10
2019-03-24T00:18:14.023Z,12.53
2019-03-24T00:19:18.518Z,12.30
2019-03-24T00:20:23.111Z,13.80
2019-03-24T00:21:27.718Z,13.00
2019-03-24T00:22:32.208Z,12.47
2019-03-24T00:23:36.709Z,12.28
2019-03-24T00:24:41.202Z,12.10
2019-03-24T00:25:45.756Z,13.25
2019-03-24T00:26:50.338Z,12.73
2019-03-24T00:27:54.847Z,13.70
2019-03-24T00:28:59.349Z,11.57
2019-03-24T00:30:06.709Z,11.67
2019-03-24T00:31:11.759Z,12.43
2019-03-24T00:32:16.464Z,12.10
2019-03-24T00:33:20.957Z,11.93
2019-03-24T00:34:25.588Z,12.05
2019-03-24T00:35:30.084Z,12.63
2019-03-24T00:36:34.756Z,11.97
2019-03-24T00:37:39.423Z,12.03
2019-03-24T00:38:43.905Z,12.40
2019-03-24T00:39:48.379Z,11.90
2019-03-24T00:40:52.936Z,13.10
2019-03-24T00:41:57.406Z,11.90
2019-03-24T00:43:01.908Z,12.87
2019-03-24T00:44:06.460Z,12.10
2019-03-24T00:45:11.122Z,12.07
2019-03-24T00:46:15.600Z,12.18
2019-03-24T00:47:20.090Z,11.77
2019-03-24T00:48:24.664Z,12.23
2019-03-24T00:49:29.150Z,12.07
2019-03-24T00:50:33.628Z,11.77
2019-03-24T00:51:38.113Z,12.90
2019-03-24T00:52:42.596Z,12.40
2019-03-24T00:53:47.089Z,11.47
2019-03-24T00:54:51.565Z,11.27
2019-03-24T00:55:56.047Z,12.13
2019-03-24T00:57:00.537Z,11.20
2019-03-24T00:58:05.106Z,11.78
2019-03-24T00:59:09.623Z,11.80
2019-03-24T01:00:14.941Z,12.63
2019-03-24T01:01:19.602Z,12.10
2019-03-24T01:02:24.162Z,13.48
2019-03-24T01:03:28.666Z,12.17
2019-03-24T01:04:33.162Z,11.77
2019-03-24T01:05:37.635Z,12.30
2019-03-24T01:06:42.144Z,11.40
2019-03-24T01:07:46.670Z,12.50
2019-03-24T01:08:51.226Z,13.00
2019-03-24T01:09:55.733Z,12.50
2019-03-24T01:11:00.321Z,13.97
2019-03-24T01:12:05.498Z,12.80
2019-03-24T01:13:10.056Z,12.40
2019-03-24T01:14:14.528Z,12.40
2019-03-24T01:15:19.010Z,12.60
2019-03-24T01:16:23.835Z,13.00
2019-03-24T01:17:28.377Z,12.78
2019-03-24T01:18:32.845Z,12.13
2019-03-24T01:19:37.335Z,11.33
2019-03-24T01:20:41.949Z,12.37
2019-03-24T01:21:46.507Z,11.78
2019-03-24T01:22:50.971Z,12.05
2019-03-24T01:23:55.467Z,11.93
2019-03-24T01:24:59.982Z,11.65
2019-03-24T01:26:04.504Z,12.88
2019-03-24T01:27:09.118Z,12.90
2019-03-24T01:28:14.292Z,12.47
2019-03-24T01:29:18.759Z,12.43
2019-03-24T01:30:23.313Z,12.90
2019-03-24T01:31:27.807Z,11.50
2019-03-24T01:32:32.316Z,11.40
2019-03-24T01:33:36.795Z,11.28
2019-03-24T01:34:41.283Z,11.87
2019-03-24T01:35:45.893Z,12.47
2019-03-24T01:36:50.383Z,12.60
2019-03-24T01:37:54.874Z,11.57
2019-03-24T01:38:59.418Z,11.27
2019-03-24T01:40:05.840Z,11.20
2019-03-24T01:41:10.412Z,11.20
2019-03-24T01:42:14.899Z,10.60
2019-03-24T01:43:19.387Z,10.97
2019-03-24T01:44:23.864Z,11.75
2019-03-24T01:45:28.424Z,11.68
2019-03-24T01:46:33.044Z,10.38
2019-03-24T01:47:37.602Z,10.82
2019-03-24T01:48:42.084Z,9.88
2019-03-24T01:49:46.564Z,11.30
2019-03-24T01:50:51.045Z,10.43
2019-03-24T01:51:55.528Z,10.97
2019-03-24T01:53:00.022Z,10.33
2019-03-24T01:54:04.587Z,10.93
2019-03-24T01:55:09.331Z,11.47
2019-03-24T01:56:13.825Z,11.43
2019-03-24T01:57:18.328Z,11.60
2019-03-24T01:58:22.794Z,11.10
2019-03-24T01:59:27.289Z,10.53
2019-03-24T02:00:31.788Z,11.03
2019-03-24T02:01:36.272Z,11.15
2019-03-24T02:02:40.751Z,10.27
2019-03-24T02:03:45.222Z,9.67
2019-03-24T02:04:49.712Z,10.15
2019-03-24T02:05:54.200Z,9.43
2019-03-24T02:06:58.699Z,10.57
2019-03-24T02:08:03.220Z,9.73
2019-03-24T02:09:08.913Z,9.40
2019-03-24T02:10:13.971Z,9.63
2019-03-24T02:11:18.448Z,9.95
2019-03-24T02:12:23.110Z,9.50
2019-03-24T02:13:27.595Z,10.20
2019-03-24T02:14:32.092Z,10.17
2019-03-24T02:15:36.583Z,10.70
2019-03-24T02:16:41.135Z,9.67
2019-03-24T02:17:45.613Z,10.50
2019-03-24T02:18:50.171Z,9.37
2019-03-24T02:19:54.662Z,10.20
2019-03-24T02:20:59.155Z,10.10
2019-03-24T02:22:03.630Z,10.20
2019-03-24T02:23:08.123Z,9.77
2019-03-24T02:24:12.599Z,9.10
2019-03-24T02:25:17.151Z,10.23
2019-03-24T02:26:21.631Z,10.63
2019-03-24T02:27:26.126Z,9.73
2019-03-24T02:28:30.604Z,9.53
2019-03-24T02:29:35.320Z,9.73
2019-03-24T02:30:39.785Z,9.63
2019-03-24T02:31:44.284Z,9.30
2019-03-24T02:32:48.841Z,9.93
2019-03-24T02:33:53.350Z,10.25
2019-03-24T02:34:57.838Z,10.72
2019-03-24T02:36:02.321Z,10.65
2019-03-24T02:37:06.874Z,9.10
2019-03-24T02:38:11.365Z,9.90
2019-03-24T02:39:15.908Z,9.50
2019-03-24T02:40:20.398Z,9.97
2019-03-24T02:41:24.875Z,9.45
2019-03-24T02:42:29.358Z,10.03
2019-03-24T02:43:34.081Z,9.00
2019-03-24T02:44:38.559Z,8.70
2019-03-24T02:45:43.281Z,9.90
2019-03-24T02:46:47.758Z,9.95
2019-03-24T02:47:52.248Z,9.40
2019-03-24T02:48:56.743Z,9.08
2019-03-24T02:50:01.234Z,9.47
2019-03-24T02:51:05.785Z,9.60
2019-03-24T02:52:10.276Z,10.07
2019-03-24T02:53:14.747Z,9.53
2019-03-24T02:54:19.249Z,10.13
2019-03-24T02:55:23.730Z,10.28
2019-03-24T02:56:28.245Z,8.85
2019-03-24T02:57:32.727Z,9.20
2019-03-24T02:58:37.191Z,9.08
2019-03-24T02:59:41.675Z,9.20
2019-03-24T03:00:46.271Z,9.65
2019-03-24T03:01:50.824Z,9.15
2019-03-24T03:02:55.286Z,9.33
2019-03-24T03:03:59.791Z,9.50
2019-03-24T03:05:06.669Z,9.95
2019-03-24T03:06:11.161Z,8.33
2019-03-24T03:07:15.620Z,9.13
2019-03-24T03:08:20.106Z,10.00
2019-03-24T03:09:24.682Z,8.90
2019-03-24T03:10:29.171Z,9.90
2019-03-24T03:11:33.664Z,9.03
2019-03-24T03:12:38.148Z,8.80
2019-03-24T03:13:42.634Z,8.90
2019-03-24T03:14:47.148Z,9.03
2019-03-24T03:15:51.618Z,9.80
2019-03-24T03:16:56.099Z,9.63
2019-03-24T03:18:00.576Z,9.65
2019-03-24T03:19:05.136Z,10.03
2019-03-24T03:20:11.255Z,9.68
2019-03-24T03:21:15.740Z,10.60
2019-03-24T03:22:20.258Z,9.58
2019-03-24T03:23:24.818Z,10.05
2019-03-24T03:24:29.318Z,10.63
2019-03-24T03:25:33.785Z,9.43
2019-03-24T03:26:38.345Z,10.47
2019-03-24T03:27:42.854Z,9.73
2019-03-24T03:28:47.332Z,9.50
2019-03-24T03:29:51.822Z,10.03
2019-03-24T03:30:56.296Z,9.90
2019-03-24T03:32:00.795Z,9.63
2019-03-24T03:33:05.356Z,10.13
2019-03-24T03:34:09.852Z,10.00
2019-03-24T03:35:14.633Z,9.23
2019-03-24T03:36:19.126Z,10.83
2019-03-24T03:37:23.681Z,9.43
2019-03-24T03:38:28.153Z,9.83
2019-03-24T03:39:32.643Z,9.17
2019-03-24T03:40:37.355Z,9.27
2019-03-24T03:41:41.832Z,9.40
2019-03-24T03:42:46.415Z,9.05
2019-03-24T03:43:50.957Z,9.98
2019-03-24T03:44:55.438Z,9.50
2019-03-24T03:45:59.905Z,9.48
2019-03-24T03:47:04.366Z,9.20
2019-03-24T03:48:08.856Z,10.55
2019-03-24T03:49:13.467Z,10.28
2019-03-24T03:50:18.004Z,9.50
2019-03-24T03:51:22.758Z,10.08
2019-03-24T03:52:27.255Z,11.10
2019-03-24T03:53:31.746Z,10.17
2019-03-24T03:54:36.239Z,10.57
2019-03-24T03:55:40.730Z,10.83
2019-03-24T03:56:45.585Z,9.13
2019-03-24T03:57:50.069Z,9.10
2019-03-24T03:58:54.563Z,9.10
2019-03-24T03:59:59.045Z,9.23
2019-03-24T04:01:03.517Z,9.20
2019-03-24T04:02:08.014Z,9.50
2019-03-24T04:03:12.493Z,9.87
2019-03-24T04:04:16.996Z,8.70
2019-03-24T04:05:21.529Z,8.85
2019-03-24T04:06:26.028Z,9.10
2019-03-24T04:07:30.561Z,9.10
2019-03-24T04:08:35.051Z,8.30
2019-03-24T04:09:39.552Z,8.50
2019-03-24T04:10:44.028Z,9.48
2019-03-24T04:11:48.503Z,9.65
2019-03-24T04:12:52.992Z,8.93
2019-03-24T04:13:57.484Z,9.25
2019-03-24T04:15:02.399Z,9.20
2019-03-24T04:16:06.957Z,9.13
2019-03-24T04:17:11.492Z,8.63
2019-03-24T04:18:16.044Z,8.60
2019-03-24T04:19:20.504Z,8.73
2019-03-24T04:20:25.032Z,9.20
2019-03-24T04:21:29.499Z,9.25
2019-03-24T04:22:33.984Z,9.57
2019-03-24T04:23:38.459Z,9.13
2019-03-24T04:24:42.957Z,9.10
2019-03-24T04:25:47.443Z,8.40
2019-03-24T04:26:52.005Z,8.35
2019-03-24T04:27:56.491Z,7.90
2019-03-24T04:29:00.978Z,8.55
2019-03-24T04:30:06.490Z,8.38
2019-03-24T04:31:11.065Z,9.43
2019-03-24T04:32:15.532Z,8.50
2019-03-24T04:33:20.982Z,8.83
2019-03-24T04:34:25.494Z,9.33
2019-03-24T04:35:30.086Z,8.88
2019-03-24T04:36:34.589Z,9.20
2019-03-24T04:37:39.054Z,9.63
2019-03-24T04:38:43.528Z,8.00
2019-03-24T04:39:47.986Z,8.40
2019-03-24T04:40:52.472Z,8.93
2019-03-24T04:41:56.979Z,9.13
2019-03-24T04:43:01.449Z,8.73
2019-03-24T04:44:05.929Z,9.03
2019-03-24T04:45:10.750Z,8.33
2019-03-24T04:46:15.225Z,8.77
2019-03-24T04:47:19.793Z,8.67
2019-03-24T04:48:24.285Z,8.87
2019-03-24T04:49:28.760Z,9.17
2019-03-24T04:50:33.231Z,8.80
2019-03-24T04:51:37.715Z,9.70
2019-03-24T04:52:42.203Z,8.70
2019-03-24T04:53:46.671Z,9.20
2019-03-24T04:54:51.152Z,8.53
2019-03-24T04:55:55.689Z,8.83
2019-03-24T04:57:00.209Z,8.65
2019-03-24T04:58:04.701Z,8.15
2019-03-24T04:59:09.573Z,8.65
2019-03-24T05:00:14.598Z,8.83
2019-03-24T05:01:19.082Z,9.25
2019-03-24T05:02:23.562Z,9.23
2019-03-24T05:03:28.048Z,8.05
2019-03-24T05:04:32.506Z,8.78
2019-03-24T05:05:37.806Z,8.88
2019-03-24T05:06:43.132Z,8.20
2019-03-24T05:07:47.759Z,9.00
2019-03-24T05:08:52.709Z,8.40
2019-03-24T05:09:57.469Z,8.67
2019-03-24T05:11:01.926Z,8.67
2019-03-24T05:12:06.462Z,8.50
2019-03-24T05:13:10.954Z,8.53
2019-03-24T05:14:15.432Z,8.15
2019-03-24T05:15:19.965Z,7.83
2019-03-24T05:16:24.437Z,7.87
2019-03-24T05:17:28.918Z,8.25
2019-03-24T05:18:33.488Z,8.25
2019-03-24T05:19:37.970Z,8.87
2019-03-24T05:20:42.457Z,8.70
2019-03-24T05:21:46.946Z,8.37
2019-03-24T05:22:51.418Z,8.40
2019-03-24T05:23:55.883Z,8.13
2019-03-24T05:25:00.628Z,8.63
2019-03-24T05:26:05.183Z,9.20
2019-03-24T05:27:09.673Z,8.63
2019-03-24T05:28:14.144Z,8.15
2019-03-24T05:29:18.606Z,8.78
2019-03-24T05:30:23.100Z,8.33
2019-03-24T05:31:27.576Z,8.10
2019-03-24T05:32:32.067Z,8.38
2019-03-24T05:33:36.546Z,7.90
2019-03-24T05:34:41.015Z,8.57
2019-03-24T05:35:45.516Z,8.50
2019-03-24T05:36:49.998Z,8.13
2019-03-24T05:37:54.478Z,8.60
2019-03-24T05:38:58.948Z,8.10
2019-03-24T05:40:04.067Z,8.30
2019-03-24T05:41:08.594Z,8.43
2019-03-24T05:42:13.106Z,8.50
2019-03-24T05:43:17.579Z,7.43
2019-03-24T05:44:22.038Z,8.30
2019-03-24T05:45:26.533Z,8.27
2019-03-24T05:46:31.338Z,7.90
2019-03-24T05:47:37.333Z,7.23
2019-03-24T05:48:42.071Z,8.73
2019-03-24T05:49:46.542Z,8.90
2019-03-24T05:50:51.012Z,8.93
2019-03-24T05:51:55.507Z,9.23
2019-03-24T05:52:59.988Z,10.67
2019-03-24T05:54:04.623Z,11.77
2019-03-24T05:55:09.158Z,13.30
2019-03-24T05:56:13.639Z,12.53
2019-03-24T05:57:18.397Z,11.88
2019-03-24T05:58:22.893Z,10.93
2019-03-24T05:59:27.375Z,9.80
2019-03-24T06:00:31.934Z,10.53
2019-03-24T06:01:36.431Z,9.30
2019-03-24T06:02:41.293Z,11.00
2019-03-24T06:03:45.796Z,10.37
2019-03-24T06:04:50.306Z,10.90
2019-03-24T06:05:54.797Z,9.77
2019-03-24T06:06:59.268Z,10.53
2019-03-24T06:08:03.749Z,9.33
2019-03-24T06:09:08.220Z,9.08
2019-03-24T06:10:13.055Z,9.13
2019-03-24T06:11:17.539Z,8.75
2019-03-24T06:12:22.015Z,8.53
2019-03-24T06:13:26.508Z,8.40
2019-03-24T06:14:30.993Z,8.87
2019-03-24T06:15:35.461Z,9.00
2019-03-24T06:16:40.026Z,8.48
2019-03-24T06:17:48.006Z,8.23
2019-03-24T06:18:50.760Z,8.70
2019-03-24T06:19:55.243Z,8.23
2019-03-24T06:20:59.719Z,8.50
2019-03-24T06:22:04.202Z,8.40
2019-03-24T06:23:08.676Z,9.07
2019-03-24T06:24:13.172Z,9.60
2019-03-24T06:25:17.634Z,9.10
2019-03-24T06:26:22.126Z,10.05
2019-03-24T06:27:26.618Z,9.10
2019-03-24T06:28:31.091Z,9.17
2019-03-24T06:29:35.652Z,9.35
2019-03-24T06:30:40.148Z,8.90
2019-03-24T06:31:44.624Z,9.60
2019-03-24T06:32:49.098Z,10.13
2019-03-24T06:33:53.589Z,10.05
2019-03-24T06:34:58.098Z,10.13
2019-03-24T06:36:02.580Z,10.18
2019-03-24T06:37:07.061Z,9.13
2019-03-24T06:38:11.552Z,9.78
2019-03-24T06:39:16.020Z,9.50
2019-03-24T06:40:20.503Z,9.93
2019-03-24T06:41:25.056Z,10.93
2019-03-24T06:42:29.538Z,10.70
2019-03-24T06:43:34.047Z,9.60
2019-03-24T06:44:38.540Z,10.37
2019-03-24T06:45:43.023Z,10.33
2019-03-24T06:46:47.507Z,10.43
2019-03-24T06:47:57.908Z,9.65
2019-03-24T06:48:58.192Z,10.87
2019-03-24T06:50:02.695Z,10.35
2019-03-24T06:51:07.192Z,10.80
2019-03-24T06:52:11.834Z,10.10
2019-03-24T06:53:16.318Z,11.50
2019-03-24T06:54:20.853Z,11.28
2019-03-24T06:55:25.326Z,10.30
2019-03-24T06:56:29.831Z,10.95
2019-03-24T06:57:34.311Z,10.90
2019-03-24T06:58:38.804Z,11.78
2019-03-24T06:59:43.287Z,11.53
2019-03-24T07:00:47.802Z,10.98
2019-03-24T07:01:52.329Z,11.33
2019-03-24T07:02:56.868Z,11.57
2019-03-24T07:04:01.371Z,12.27
2019-03-24T07:05:06.397Z,11.33
2019-03-24T07:06:10.909Z,10.67
2019-03-24T07:07:15.443Z,11.90
2019-03-24T07:08:19.965Z,11.70
2019-03-24T07:09:24.444Z,12.10
2019-03-24T07:10:28.949Z,11.37
2019-03-24T07:11:33.465Z,12.00
2019-03-24T07:12:38.130Z,12.57
2019-03-24T07:13:42.621Z,11.07
2019-03-24T07:14:47.128Z,12.40
2019-03-24T07:15:51.744Z,11.30
2019-03-24T07:16:56.302Z,11.20
2019-03-24T07:18:08.100Z,13.40
2019-03-24T07:19:06.957Z,13.08
2019-03-24T07:20:11.792Z,13.68
2019-03-24T07:21:16.261Z,13.22
2019-03-24T07:22:20.819Z,13.68
2019-03-24T07:23:25.314Z,12.75
2019-03-24T07:24:29.799Z,12.93
2019-03-24T07:25:34.295Z,13.40
2019-03-24T07:26:38.774Z,12.55
2019-03-24T07:27:43.266Z,13.03
2019-03-24T07:28:47.783Z,12.73
2019-03-24T07:29:52.249Z,12.63
2019-03-24T07:30:56.730Z,12.13
2019-03-24T07:32:01.212Z,12.10
2019-03-24T07:33:05.715Z,13.13
2019-03-24T07:34:10.226Z,12.20
2019-03-24T07:35:14.790Z,12.73
2019-03-24T07:36:19.299Z,13.07
2019-03-24T07:37:23.776Z,12.87
2019-03-24T07:38:28.284Z,13.10
2019-03-24T07:39:32.771Z,12.70
2019-03-24T07:40:37.247Z,12.90
2019-03-24T07:41:41.754Z,12.87
2019-03-24T07:42:46.224Z,13.40
2019-03-24T07:43:50.713Z,12.60
2019-03-24T07:44:55.215Z,12.80
2019-03-24T07:45:59.696Z,12.43
2019-03-24T07:47:07.273Z,12.43
2019-03-24T07:48:18.999Z,13.32
2019-03-24T07:49:17.952Z,13.43
2019-03-24T07:50:22.519Z,13.20
2019-03-24T07:51:27.005Z,13.90
2019-03-24T07:52:31.495Z,13.13
2019-03-24T07:53:35.986Z,13.43
2019-03-24T07:54:40.743Z,13.77
2019-03-24T07:55:45.249Z,13.20
2019-03-24T07:56:49.758Z,13.47
2019-03-24T07:57:54.235Z,14.67
2019-03-24T07:58:58.892Z,13.25
2019-03-24T08:00:04.548Z,14.77
2019-03-24T08:01:09.056Z,14.57
2019-03-24T08:02:13.545Z,14.47
2019-03-24T08:03:18.050Z,13.47
2019-03-24T08:04:22.629Z,13.97
2019-03-24T08:05:27.124Z,14.13
2019-03-24T08:06:31.638Z,13.47
2019-03-24T08:07:36.184Z,14.70
2019-03-24T08:08:44.490Z,14.73
2019-03-24T08:09:46.896Z,14.78
2019-03-24T08:10:51.396Z,14.07
2019-03-24T08:11:55.955Z,14.43
2019-03-24T08:13:00.423Z,13.32
2019-03-24T08:14:04.995Z,14.00
2019-03-24T08:15:09.661Z,14.53
2019-03-24T08:16:14.144Z,14.07
2019-03-24T08:17:18.658Z,14.47
2019-03-24T08:18:29.880Z,14.17
2019-03-24T08:19:29.341Z,13.83
2019-03-24T08:20:33.831Z,13.83
2019-03-24T08:21:38.309Z,14.53
2019-03-24T08:22:42.874Z,14.73
2019-03-24T08:23:47.362Z,13.58
2019-03-24T08:24:51.834Z,14.43
2019-03-24T08:25:56.312Z,13.93
2019-03-24T08:27:00.782Z,15.03
2019-03-24T08:28:05.420Z,14.93
2019-03-24T08:29:10.001Z,14.47
2019-03-24T08:30:16.119Z,14.98
2019-03-24T08:31:20.591Z,13.68
2019-03-24T08:32:25.085Z,14.20
2019-03-24T08:33:29.568Z,14.05
2019-03-24T08:34:34.041Z,13.80
2019-03-24T08:35:38.540Z,14.43
2019-03-24T08:36:43.060Z,14.73
2019-03-24T08:37:47.580Z,14.50
2019-03-24T08:38:52.120Z,14.53
2019-03-24T08:39:56.592Z,13.93
2019-03-24T08:41:01.106Z,14.33
2019-03-24T08:42:05.705Z,14.07
2019-03-24T08:43:10.211Z,14.37
2019-03-24T08:44:14.754Z,15.70
2019-03-24T08:45:26.839Z,14.37
2019-03-24T08:46:31.492Z,14.20
2019-03-24T08:47:35.962Z,14.00
2019-03-24T08:48:41.350Z,14.47
2019-03-24T08:49:45.874Z,14.43
2019-03-24T08:50:50.363Z,14.55
2019-03-24T08:51:54.834Z,15.58
2019-03-24T08:52:59.345Z,14.93
2019-03-24T08:54:03.892Z,15.18
2019-03-24T08:55:08.707Z,14.65
2019-03-24T08:56:13.206Z,15.30
2019-03-24T08:57:17.687Z,14.23
2019-03-24T08:58:22.190Z,15.00
2019-03-24T08:59:26.688Z,15.73
2019-03-24T09:00:31.272Z,14.98
2019-03-24T09:01:35.827Z,15.15
2019-03-24T09:02:40.330Z,15.73
2019-03-24T09:03:44.814Z,15.70
2019-03-24T09:04:49.134Z,15.20
2019-03-24T09:05:53.498Z,14.53
2019-03-24T09:06:57.992Z,15.88
2019-03-24T09:08:02.550Z,15.07
2019-03-24T09:09:07.315Z,15.13
2019-03-24T09:10:11.873Z,14.73
2019-03-24T09:11:16.372Z,16.70
2019-03-24T09:12:20.850Z,15.30
2019-03-24T09:13:25.350Z,15.47
2019-03-24T09:14:29.836Z,16.73
2019-03-24T09:15:34.342Z,15.50
2019-03-24T09:16:38.836Z,15.83
2019-03-24T09:17:43.465Z,16.33
2019-03-24T09:18:52.852Z,15.27
2019-03-24T09:19:54.313Z,15.27
2019-03-24T09:20:58.834Z,15.03
2019-03-24T09:22:03.365Z,16.10
2019-03-24T09:23:07.895Z,15.10
2019-03-24T09:24:12.439Z,14.70
2019-03-24T09:25:17.030Z,16.13
2019-03-24T09:26:21.596Z,15.63
2019-03-24T09:27:26.088Z,16.10
2019-03-24T09:28:30.579Z,15.30
2019-03-24T09:29:35.052Z,15.23
2019-03-24T09:30:40.140Z,14.50
2019-03-24T09:31:44.328Z,16.43
2019-03-24T09:32:48.679Z,15.83
2019-03-24T09:33:53.175Z,16.60
2019-03-24T09:34:57.664Z,15.50
2019-03-24T09:36:02.168Z,17.00
2019-03-24T09:37:06.759Z,16.33
2019-03-24T09:38:11.321Z,15.97
2019-03-24T09:39:15.818Z,16.57
2019-03-24T09:40:28.624Z,17.40
2019-03-24T09:41:33.210Z,16.37
2019-03-24T09:42:37.694Z,16.07
2019-03-24T09:43:42.212Z,16.77
2019-03-24T09:44:46.687Z,16.50
2019-03-24T09:45:51.177Z,16.00
2019-03-24T09:46:55.693Z,17.50
2019-03-24T09:48:00.420Z,15.73
2019-03-24T09:49:05.171Z,16.03
2019-03-24T09:50:09.797Z,16.27
2019-03-24T09:51:14.276Z,17.00
2019-03-24T09:52:18.760Z,16.93
2019-03-24T09:53:23.278Z,16.40
2019-03-24T09:54:27.793Z,16.20
2019-03-24T09:55:32.340Z,17.33
2019-03-24T09:56:36.843Z,17.90
2019-03-24T09:57:41.329Z,17.80
2019-03-24T09:58:45.815Z,16.77
2019-03-24T09:59:50.328Z,17.17
2019-03-24T10:00:54.843Z,18.50
2019-03-24T10:01:59.334Z,17.83
2019-03-24T10:03:03.913Z,18.70
2019-03-24T10:04:08.390Z,18.50
2019-03-24T10:05:13.045Z,18.47
2019-03-24T10:06:17.544Z,17.83
2019-03-24T10:07:22.111Z,18.23
2019-03-24T10:08:26.609Z,19.47
2019-03-24T10:09:31.089Z,18.83
2019-03-24T10:10:35.583Z,18.63
2019-03-24T10:11:40.225Z,19.17
2019-03-24T10:12:44.726Z,20.17
2019-03-24T10:13:49.209Z,18.77
2019-03-24T10:14:53.722Z,20.53
2019-03-24T10:15:58.203Z,19.13
2019-03-24T10:17:02.685Z,18.53
2019-03-24T10:18:07.172Z,19.17
2019-03-24T10:19:14.314Z,19.83
2019-03-24T10:20:17.852Z,19.73
2019-03-24T10:21:22.352Z,20.43
2019-03-24T10:22:26.853Z,20.90
2019-03-24T10:23:31.347Z,20.43
2019-03-24T10:24:35.828Z,20.30
2019-03-24T10:25:40.357Z,19.63
2019-03-24T10:26:44.856Z,20.70
2019-03-24T10:27:49.334Z,20.10
2019-03-24T10:28:53.828Z,20.43
2019-03-24T10:29:58.316Z,21.17
2019-03-24T10:31:02.852Z,20.97
2019-03-24T10:32:07.418Z,21.03
2019-03-24T10:33:11.891Z,20.87
2019-03-24T10:34:16.380Z,19.63
2019-03-24T10:35:20.878Z,20.20
2019-03-24T10:36:25.370Z,20.33
2019-03-24T10:37:29.876Z,20.50
2019-03-24T10:38:34.355Z,19.93
2019-03-24T10:39:38.918Z,19.87
2019-03-24T10:40:43.400Z,19.97
2019-03-24T10:41:47.912Z,18.90
2019-03-24T10:42:52.476Z,21.57
2019-03-24T10:43:56.957Z,20.23
2019-03-24T10:45:01.433Z,22.03
2019-03-24T10:46:05.993Z,21.67
2019-03-24T10:47:10.499Z,19.60
2019-03-24T10:48:14.972Z,20.10
2019-03-24T10:49:24.773Z,20.87
2019-03-24T10:50:25.706Z,20.23
2019-03-24T10:51:30.280Z,20.40
2019-03-24T10:52:35.061Z,20.30
2019-03-24T10:53:39.541Z,19.37
2019-03-24T10:54:44.007Z,19.43
2019-03-24T10:55:48.488Z,18.93
2019-03-24T10:56:52.998Z,20.93
2019-03-24T10:57:57.562Z,19.73
2019-03-24T10:59:02.055Z,19.97
2019-03-24T11:00:11.896Z,20.57
2019-03-24T11:01:16.372Z,20.07
2019-03-24T11:02:20.835Z,20.00
2019-03-24T11:03:25.318Z,20.40
2019-03-24T11:04:29.488Z,19.17
2019-03-24T11:05:33.933Z,19.80
2019-03-24T11:06:38.425Z,21.00
2019-03-24T11:07:42.896Z,20.73
2019-03-24T11:08:47.371Z,20.57
2019-03-24T11:09:51.867Z,19.77
2019-03-24T11:10:56.348Z,21.00
2019-03-24T11:12:00.829Z,18.87
2019-03-24T11:13:05.394Z,20.53
2019-03-24T11:14:09.872Z,20.33
2019-03-24T11:15:14.379Z,21.03
2019-03-24T11:16:18.845Z,20.53
2019-03-24T11:17:23.344Z,20.13
2019-03-24T11:18:27.820Z,20.10
2019-03-24T11:19:36.032Z,20.43
2019-03-24T11:20:38.496Z,19.20
2019-03-24T11:21:42.976Z,18.37
2019-03-24T11:22:47.458Z,18.60
2019-03-24T11:23:51.931Z,17.80
2019-03-24T11:24:56.411Z,16.93
2019-03-24T11:26:00.904Z,18.83
2019-03-24T11:27:05.470Z,19.77
2019-03-24T11:28:09.965Z,18.40
2019-03-24T11:29:14.434Z,18.93
2019-03-24T11:30:18.974Z,18.40
2019-03-24T11:31:23.565Z,19.47
2019-03-24T11:32:28.059Z,18.30
2019-03-24T11:33:32.543Z,18.47
2019-03-24T11:34:37.011Z,17.87
2019-03-24T11:35:41.494Z,18.10
2019-03-24T11:36:45.975Z,18.23
2019-03-24T11:37:50.531Z,18.70
2019-03-24T11:38:55.030Z,18.93
2019-03-24T11:39:59.517Z,18.03
2019-03-24T11:41:04.069Z,19.67
2019-03-24T11:42:08.629Z,19.30
2019-03-24T11:43:13.135Z,18.10
2019-03-24T11:44:17.622Z,20.27
2019-03-24T11:45:22.350Z,19.33
2019-03-24T11:46:26.827Z,19.23
2019-03-24T11:47:31.330Z,18.73
2019-03-24T11:48:35.808Z,17.87
2019-03-24T11:49:45.995Z,18.27
2019-03-24T11:50:46.548Z,19.20
2019-03-24T11:51:51.023Z,18.30
2019-03-24T11:52:55.514Z,18.37
2019-03-24T11:53:59.987Z,17.27
2019-03-24T11:55:07.620Z,18.13
2019-03-24T11:56:12.154Z,18.90
2019-03-24T11:57:16.632Z,18.50
2019-03-24T11:58:21.117Z,19.30
2019-03-24T11:59:25.622Z,18.57
2019-03-24T12:00:34.503Z,19.13
2019-03-24T12:01:39.003Z,17.53
2019-03-24T12:02:43.714Z,19.87
2019-03-24T12:03:48.211Z,20.70
2019-03-24T12:04:52.691Z,19.07
2019-03-24T12:05:57.162Z,18.37
2019-03-24T12:07:01.661Z,19.87
2019-03-24T12:08:06.191Z,19.10
2019-03-24T12:09:10.698Z,18.73
2019-03-24T12:10:15.516Z,19.07
2019-03-24T12:11:19.982Z,19.37
2019-03-24T12:12:24.478Z,19.13
2019-03-24T12:13:29.023Z,18.43
2019-03-24T12:14:33.510Z,19.37
2019-03-24T12:15:37.987Z,19.83
2019-03-24T12:16:42.467Z,20.00
2019-03-24T12:17:46.943Z,19.93
2019-03-24T12:18:51.425Z,19.43
2019-03-24T12:19:56.949Z,20.40
2019-03-24T12:21:01.790Z,19.00
2019-03-24T12:22:06.530Z,18.77
2019-03-24T12:23:11.022Z,18.77
2019-03-24T12:24:15.498Z,20.40
2019-03-24T12:25:20.025Z,18.23
2019-03-24T12:26:24.564Z,19.50
2019-03-24T12:27:29.063Z,18.53
2019-03-24T12:28:33.543Z,19.43
2019-03-24T12:29:38.044Z,17.90
2019-03-24T12:30:42.565Z,18.43
2019-03-24T12:31:47.055Z,18.80
2019-03-24T12:32:51.533Z,17.73
2019-03-24T12:33:56.017Z,17.93
2019-03-24T12:35:00.506Z,18.13
2019-03-24T12:36:05.150Z,17.00
2019-03-24T12:37:09.627Z,17.43
2019-03-24T12:38:14.091Z,17.67
2019-03-24T12:39:18.584Z,18.23
2019-03-24T12:40:23.136Z,17.70
2019-03-24T12:41:27.635Z,16.67
2019-03-24T12:42:32.116Z,17.17
2019-03-24T12:43:36.617Z,16.80
2019-03-24T12:44:41.089Z,16.97
2019-03-24T12:45:45.582Z,16.47
2019-03-24T12:46:50.069Z,16.70
2019-03-24T12:47:54.561Z,16.47
2019-03-24T12:48:59.031Z,16.77
2019-03-24T12:50:09.152Z,17.45
2019-03-24T12:51:12.231Z,17.03
2019-03-24T12:52:16.744Z,16.37
2019-03-24T12:53:21.244Z,16.77
2019-03-24T12:54:25.731Z,16.13
2019-03-24T12:55:30.209Z,16.47
2019-03-24T12:56:34.691Z,17.27
2019-03-24T12:57:39.177Z,16.73
2019-03-24T12:58:43.839Z,17.40
2019-03-24T12:59:48.329Z,16.20
2019-03-24T13:00:52.812Z,18.07
2019-03-24T13:01:57.343Z,17.50
2019-03-24T13:03:01.973Z,17.97
2019-03-24T13:04:06.625Z,16.87
2019-03-24T13:05:11.759Z,17.23
2019-03-24T13:06:16.253Z,18.10
2019-03-24T13:07:20.728Z,18.43
2019-03-24T13:08:25.224Z,18.90
2019-03-24T13:09:29.718Z,16.97
2019-03-24T13:10:34.194Z,17.47
2019-03-24T13:11:38.748Z,16.43
2019-03-24T13:12:43.227Z,16.23
2019-03-24T13:13:47.748Z,16.63
2019-03-24T13:14:52.589Z,16.53
2019-03-24T13:15:57.158Z,17.63
2019-03-24T13:17:01.639Z,18.40
2019-03-24T13:18:06.138Z,17.63
2019-03-24T13:19:10.633Z,17.90
2019-03-24T13:20:22.603Z,16.53
2019-03-24T13:21:21.460Z,16.73
2019-03-24T13:22:25.980Z,15.40
2019-03-24T13:23:30.442Z,15.37
2019-03-24T13:24:34.991Z,15.23
2019-03-24T13:25:39.541Z,15.97
2019-03-24T13:26:44.056Z,16.10
2019-03-24T13:27:48.717Z,15.90
2019-03-24T13:28:53.201Z,15.50
2019-03-24T13:29:57.684Z,14.83
2019-03-24T13:31:02.170Z,16.63
2019-03-24T13:32:06.739Z,17.10
2019-03-24T13:33:11.224Z,15.77
2019-03-24T13:34:15.947Z,15.77
2019-03-24T13:35:20.432Z,15.97
2019-03-24T13:36:24.916Z,15.67
2019-03-24T13:37:29.435Z,17.13
2019-03-24T13:38:33.919Z,14.67
2019-03-24T13:39:38.396Z,16.87
2019-03-24T13:40:43.455Z,17.17
2019-03-24T13:41:47.935Z,16.40
2019-03-24T13:42:52.402Z,17.33
2019-03-24T13:43:56.898Z,16.83
2019-03-24T13:45:01.413Z,16.10
2019-03-24T13:46:06.038Z,16.07
2019-03-24T13:47:10.506Z,16.43
2019-03-24T13:48:15.074Z,15.87
2019-03-24T13:49:19.543Z,17.53
2019-03-24T13:50:31.427Z,17.00
2019-03-24T13:51:30.301Z,16.37
2019-03-24T13:52:34.864Z,15.50
2019-03-24T13:53:39.342Z,16.17
2019-03-24T13:54:43.844Z,16.33
2019-03-24T13:55:48.323Z,15.57
2019-03-24T13:56:52.804Z,15.83
2019-03-24T13:57:57.364Z,17.23
2019-03-24T13:59:01.872Z,15.77
2019-03-24T14:00:07.346Z,15.53